sensor_id;sensor_type;location;lat;lon;timestamp;P1;durP1;ratioP1;P2;durP2;ratioP2
52210;SDS011;38179;52.756;6.906;2022-07-06T00:01:32;18.80;;;17.27;;
52210;SDS011;38179;52.756;6.906;2022-07-06T00:03:58;18.05;;;16.52;;
52210;SDS011;38179;52.756;6.906;2022-07-06T00:06:24;18.17;;;16.77;;
52210;SDS011;38179;52.756;6.906;2022-07-06T00:08:49;18.13;;;16.52;;
52210;SDS011;38179;52.756;6.906;2022-07-06T00:11:15;19.38;;;17.45;;
52210;SDS011;38179;52.756;6.906;2022-07-06T00:13:41;18.67;;;16.90;;
52210;SDS011;38179;52.756;6.906;2022-07-06T00:16:08;18.60;;;16.83;;
52210;SDS011;38179;52.756;6.906;2022-07-06T00:18:34;18.63;;;17.13;;
52210;SDS011;38179;52.756;6.906;2022-07-06T00:20:59;18.65;;;17.15;;
52210;SDS011;38179;52.756;6.906;2022-07-06T00:23:25;18.70;;;17.10;;
52210;SDS011;38179;52.756;6.906;2022-07-06T00:25:51;18.23;;;16.50;;
52210;SDS011;38179;52.756;6.906;2022-07-06T00:28:17;19.00;;;17.48;;
52210;SDS011;38179;52.756;6.906;2022-07-06T00:30:43;18.20;;;16.77;;
52210;SDS011;38179;52.756;6.906;2022-07-06T00:33:09;18.67;;;17.08;;
52210;SDS011;38179;52.756;6.906;2022-07-06T00:35:35;18.90;;;17.08;;
52210;SDS011;38179;52.756;6.906;2022-07-06T00:38:01;19.35;;;17.45;;
52210;SDS011;38179;52.756;6.906;2022-07-06T00:40:26;19.13;;;17.33;;
52210;SDS011;38179;52.756;6.906;2022-07-06T00:42:55;18.30;;;16.90;;
52210;SDS011;38179;52.756;6.906;2022-07-06T00:45:21;18.33;;;16.60;;
52210;SDS011;38179;52.756;6.906;2022-07-06T00:47:47;18.42;;;16.92;;
52210;SDS011;38179;52.756;6.906;2022-07-06T00:50:14;18.08;;;16.58;;
52210;SDS011;38179;52.756;6.906;2022-07-06T00:52:48;17.95;;;16.65;;
52210;SDS011;38179;52.756;6.906;2022-07-06T00:55:17;18.05;;;16.60;;
52210;SDS011;38179;52.756;6.906;2022-07-06T00:57:45;18.38;;;16.85;;
52210;SDS011;38179;52.756;6.906;2022-07-06T01:00:12;18.42;;;16.95;;
52210;SDS011;38179;52.756;6.906;2022-07-06T01:02:41;18.63;;;16.88;;
52210;SDS011;38179;52.756;6.906;2022-07-06T01:05:11;18.63;;;17.13;;
52210;SDS011;38179;52.756;6.906;2022-07-06T01:07:39;18.65;;;16.98;;
52210;SDS011;38179;52.756;6.906;2022-07-06T01:10:10;17.92;;;16.52;;
52210;SDS011;38179;52.756;6.906;2022-07-06T01:12:38;18.15;;;16.52;;
52210;SDS011;38179;52.756;6.906;2022-07-06T01:15:07;18.50;;;16.85;;
52210;SDS011;38179;52.756;6.906;2022-07-06T01:17:38;18.52;;;16.80;;
52210;SDS011;38179;52.756;6.906;2022-07-06T01:20:07;18.00;;;16.45;;
52210;SDS011;38179;52.756;6.906;2022-07-06T01:22:36;18.80;;;16.88;;
52210;SDS011;38179;52.756;6.906;2022-07-06T01:25:02;17.92;;;16.52;;
52210;SDS011;38179;52.756;6.906;2022-07-06T01:27:28;18.17;;;16.67;;
52210;SDS011;38179;52.756;6.906;2022-07-06T01:29:54;18.88;;;17.33;;
52210;SDS011;38179;52.756;6.906;2022-07-06T01:32:20;19.08;;;17.52;;
52210;SDS011;38179;52.756;6.906;2022-07-06T01:34:46;18.70;;;17.02;;
52210;SDS011;38179;52.756;6.906;2022-07-06T01:37:12;18.60;;;17.00;;
52210;SDS011;38179;52.756;6.906;2022-07-06T01:39:38;18.85;;;17.45;;
52210;SDS011;38179;52.756;6.906;2022-07-06T01:42:03;18.42;;;16.70;;
52210;SDS011;38179;52.756;6.906;2022-07-06T01:44:30;19.10;;;17.35;;
52210;SDS011;38179;52.756;6.906;2022-07-06T01:46:56;18.63;;;17.02;;
52210;SDS011;38179;52.756;6.906;2022-07-06T01:49:22;18.40;;;16.80;;
52210;SDS011;38179;52.756;6.906;2022-07-06T01:51:48;18.58;;;16.85;;
52210;SDS011;38179;52.756;6.906;2022-07-06T01:54:13;17.73;;;16.25;;
52210;SDS011;38179;52.756;6.906;2022-07-06T01:56:39;18.30;;;16.70;;
52210;SDS011;38179;52.756;6.906;2022-07-06T01:59:05;19.00;;;17.30;;
52210;SDS011;38179;52.756;6.906;2022-07-06T02:01:31;19.08;;;17.27;;
52210;SDS011;38179;52.756;6.906;2022-07-06T02:03:57;17.90;;;16.40;;
52210;SDS011;38179;52.756;6.906;2022-07-06T02:06:23;18.88;;;17.13;;
52210;SDS011;38179;52.756;6.906;2022-07-06T02:08:49;18.52;;;16.92;;
52210;SDS011;38179;52.756;6.906;2022-07-06T02:11:16;18.27;;;16.75;;
52210;SDS011;38179;52.756;6.906;2022-07-06T02:13:43;18.48;;;16.98;;
52210;SDS011;38179;52.756;6.906;2022-07-06T02:16:09;18.15;;;16.50;;
52210;SDS011;38179;52.756;6.906;2022-07-06T02:18:35;18.80;;;17.25;;
52210;SDS011;38179;52.756;6.906;2022-07-06T02:21:02;18.63;;;16.90;;
52210;SDS011;38179;52.756;6.906;2022-07-06T02:23:30;19.00;;;16.87;;
52210;SDS011;38179;52.756;6.906;2022-07-06T02:25:55;18.30;;;16.80;;
52210;SDS011;38179;52.756;6.906;2022-07-06T02:28:21;20.00;;;16.90;;
52210;SDS011;38179;52.756;6.906;2022-07-06T02:30:47;18.17;;;16.58;;
52210;SDS011;38179;52.756;6.906;2022-07-06T02:33:13;17.98;;;16.55;;
52210;SDS011;38179;52.756;6.906;2022-07-06T02:35:39;18.38;;;16.55;;
52210;SDS011;38179;52.756;6.906;2022-07-06T02:38:08;18.05;;;16.58;;
52210;SDS011;38179;52.756;6.906;2022-07-06T02:40:35;17.90;;;16.50;;
52210;SDS011;38179;52.756;6.906;2022-07-06T02:43:01;18.27;;;16.77;;
52210;SDS011;38179;52.756;6.906;2022-07-06T02:45:27;18.27;;;16.75;;
52210;SDS011;38179;52.756;6.906;2022-07-06T02:47:53;18.70;;;17.02;;
52210;SDS011;38179;52.756;6.906;2022-07-06T02:50:20;18.55;;;16.70;;
52210;SDS011;38179;52.756;6.906;2022-07-06T02:52:46;19.05;;;16.48;;
52210;SDS011;38179;52.756;6.906;2022-07-06T02:55:12;18.00;;;16.60;;
52210;SDS011;38179;52.756;6.906;2022-07-06T02:57:38;18.50;;;17.05;;
52210;SDS011;38179;52.756;6.906;2022-07-06T03:00:04;18.25;;;16.55;;
52210;SDS011;38179;52.756;6.906;2022-07-06T03:02:31;17.90;;;16.35;;
52210;SDS011;38179;52.756;6.906;2022-07-06T03:04:57;18.33;;;16.70;;
52210;SDS011;38179;52.756;6.906;2022-07-06T03:07:23;18.92;;;17.30;;
52210;SDS011;38179;52.756;6.906;2022-07-06T03:09:49;17.67;;;16.27;;
52210;SDS011;38179;52.756;6.906;2022-07-06T03:12:15;18.10;;;16.60;;
52210;SDS011;38179;52.756;6.906;2022-07-06T03:14:42;17.42;;;16.05;;
52210;SDS011;38179;52.756;6.906;2022-07-06T03:17:08;18.67;;;17.08;;
52210;SDS011;38179;52.756;6.906;2022-07-06T03:19:34;18.48;;;16.63;;
52210;SDS011;38179;52.756;6.906;2022-07-06T03:22:00;18.67;;;17.17;;
52210;SDS011;38179;52.756;6.906;2022-07-06T03:24:26;17.55;;;16.02;;
52210;SDS011;38179;52.756;6.906;2022-07-06T03:26:52;17.83;;;16.13;;
52210;SDS011;38179;52.756;6.906;2022-07-06T03:29:17;17.83;;;16.42;;
52210;SDS011;38179;52.756;6.906;2022-07-06T03:31:43;18.55;;;16.83;;
52210;SDS011;38179;52.756;6.906;2022-07-06T03:34:09;18.85;;;17.20;;
52210;SDS011;38179;52.756;6.906;2022-07-06T03:36:35;18.38;;;16.67;;
52210;SDS011;38179;52.756;6.906;2022-07-06T03:39:01;17.63;;;16.33;;
52210;SDS011;38179;52.756;6.906;2022-07-06T03:41:27;18.10;;;16.58;;
52210;SDS011;38179;52.756;6.906;2022-07-06T03:43:53;18.17;;;16.58;;
52210;SDS011;38179;52.756;6.906;2022-07-06T03:46:19;17.88;;;16.30;;
52210;SDS011;38179;52.756;6.906;2022-07-06T03:48:45;17.83;;;16.15;;
52210;SDS011;38179;52.756;6.906;2022-07-06T03:51:11;17.70;;;16.20;;
52210;SDS011;38179;52.756;6.906;2022-07-06T03:53:37;18.20;;;16.65;;
52210;SDS011;38179;52.756;6.906;2022-07-06T03:56:03;18.70;;;16.92;;
52210;SDS011;38179;52.756;6.906;2022-07-06T03:58:47;18.65;;;17.17;;
52210;SDS011;38179;52.756;6.906;2022-07-06T04:01:13;18.17;;;16.40;;
52210;SDS011;38179;52.756;6.906;2022-07-06T04:03:39;18.13;;;16.48;;
52210;SDS011;38179;52.756;6.906;2022-07-06T04:06:05;18.67;;;16.90;;
52210;SDS011;38179;52.756;6.906;2022-07-06T04:08:31;17.90;;;16.50;;
52210;SDS011;38179;52.756;6.906;2022-07-06T04:10:57;18.33;;;16.92;;
52210;SDS011;38179;52.756;6.906;2022-07-06T04:13:23;17.73;;;16.40;;
52210;SDS011;38179;52.756;6.906;2022-07-06T04:15:50;18.35;;;16.88;;
52210;SDS011;38179;52.756;6.906;2022-07-06T04:18:17;18.10;;;16.48;;
52210;SDS011;38179;52.756;6.906;2022-07-06T04:20:43;17.35;;;15.95;;
52210;SDS011;38179;52.756;6.906;2022-07-06T04:23:09;19.25;;;17.55;;
52210;SDS011;38179;52.756;6.906;2022-07-06T04:25:34;17.73;;;16.10;;
52210;SDS011;38179;52.756;6.906;2022-07-06T04:28:00;18.15;;;16.40;;
52210;SDS011;38179;52.756;6.906;2022-07-06T04:30:26;18.33;;;16.60;;
52210;SDS011;38179;52.756;6.906;2022-07-06T04:32:52;17.35;;;16.00;;
52210;SDS011;38179;52.756;6.906;2022-07-06T04:35:18;18.00;;;16.40;;
52210;SDS011;38179;52.756;6.906;2022-07-06T04:37:44;18.45;;;16.65;;
52210;SDS011;38179;52.756;6.906;2022-07-06T04:40:13;17.42;;;15.80;;
52210;SDS011;38179;52.756;6.906;2022-07-06T04:42:39;17.30;;;15.80;;
52210;SDS011;38179;52.756;6.906;2022-07-06T04:45:06;17.60;;;16.10;;
52210;SDS011;38179;52.756;6.906;2022-07-06T04:47:33;17.55;;;16.15;;
52210;SDS011;38179;52.756;6.906;2022-07-06T04:50:00;18.42;;;16.38;;
52210;SDS011;38179;52.756;6.906;2022-07-06T04:52:25;17.30;;;15.80;;
52210;SDS011;38179;52.756;6.906;2022-07-06T04:54:53;18.42;;;16.40;;
52210;SDS011;38179;52.756;6.906;2022-07-06T04:57:19;17.90;;;16.30;;
52210;SDS011;38179;52.756;6.906;2022-07-06T04:59:46;17.92;;;16.20;;
52210;SDS011;38179;52.756;6.906;2022-07-06T05:02:12;18.13;;;16.40;;
52210;SDS011;38179;52.756;6.906;2022-07-06T05:04:38;17.73;;;16.15;;
52210;SDS011;38179;52.756;6.906;2022-07-06T05:07:03;17.60;;;16.02;;
52210;SDS011;38179;52.756;6.906;2022-07-06T05:09:29;17.60;;;16.20;;
52210;SDS011;38179;52.756;6.906;2022-07-06T05:11:55;17.58;;;15.77;;
52210;SDS011;38179;52.756;6.906;2022-07-06T05:14:22;17.70;;;16.13;;
52210;SDS011;38179;52.756;6.906;2022-07-06T05:16:48;17.98;;;16.38;;
52210;SDS011;38179;52.756;6.906;2022-07-06T05:19:14;18.33;;;16.63;;
52210;SDS011;38179;52.756;6.906;2022-07-06T05:21:40;17.92;;;16.00;;
52210;SDS011;38179;52.756;6.906;2022-07-06T05:24:05;17.92;;;16.35;;
52210;SDS011;38179;52.756;6.906;2022-07-06T05:26:31;18.10;;;16.50;;
52210;SDS011;38179;52.756;6.906;2022-07-06T05:28:57;17.42;;;15.85;;
52210;SDS011;38179;52.756;6.906;2022-07-06T05:31:23;18.95;;;16.95;;
52210;SDS011;38179;52.756;6.906;2022-07-06T05:33:49;16.98;;;15.57;;
52210;SDS011;38179;52.756;6.906;2022-07-06T05:36:15;17.77;;;16.13;;
52210;SDS011;38179;52.756;6.906;2022-07-06T05:38:41;18.08;;;16.38;;
52210;SDS011;38179;52.756;6.906;2022-07-06T05:41:07;17.27;;;15.75;;
52210;SDS011;38179;52.756;6.906;2022-07-06T05:43:35;17.55;;;16.10;;
52210;SDS011;38179;52.756;6.906;2022-07-06T05:46:01;16.83;;;15.63;;
52210;SDS011;38179;52.756;6.906;2022-07-06T05:48:28;16.90;;;15.50;;
52210;SDS011;38179;52.756;6.906;2022-07-06T05:51:12;17.08;;;15.68;;
52210;SDS011;38179;52.756;6.906;2022-07-06T05:53:38;17.90;;;16.40;;
52210;SDS011;38179;52.756;6.906;2022-07-06T05:56:04;17.38;;;15.65;;
52210;SDS011;38179;52.756;6.906;2022-07-06T05:58:30;17.52;;;15.98;;
52210;SDS011;38179;52.756;6.906;2022-07-06T06:00:56;17.60;;;16.00;;
52210;SDS011;38179;52.756;6.906;2022-07-06T06:03:22;17.27;;;15.93;;
52210;SDS011;38179;52.756;6.906;2022-07-06T06:05:48;16.83;;;15.52;;
52210;SDS011;38179;52.756;6.906;2022-07-06T06:08:15;18.10;;;16.50;;
52210;SDS011;38179;52.756;6.906;2022-07-06T06:10:40;18.00;;;16.48;;
52210;SDS011;38179;52.756;6.906;2022-07-06T06:13:06;16.92;;;15.63;;
52210;SDS011;38179;52.756;6.906;2022-07-06T06:15:33;17.73;;;16.00;;
52210;SDS011;38179;52.756;6.906;2022-07-06T06:18:00;16.75;;;15.35;;
52210;SDS011;38179;52.756;6.906;2022-07-06T06:20:26;17.73;;;15.93;;
52210;SDS011;38179;52.756;6.906;2022-07-06T06:22:53;17.25;;;15.75;;
52210;SDS011;38179;52.756;6.906;2022-07-06T06:25:29;17.20;;;15.77;;
52210;SDS011;38179;52.756;6.906;2022-07-06T06:28:03;17.10;;;15.57;;
52210;SDS011;38179;52.756;6.906;2022-07-06T06:30:30;17.67;;;16.15;;
52210;SDS011;38179;52.756;6.906;2022-07-06T06:35:37;18.13;;;16.42;;
52210;SDS011;38179;52.756;6.906;2022-07-06T06:38:06;17.55;;;16.02;;
52210;SDS011;38179;52.756;6.906;2022-07-06T06:40:32;17.85;;;16.25;;
52210;SDS011;38179;52.756;6.906;2022-07-06T06:42:58;18.75;;;16.98;;
52210;SDS011;38179;52.756;6.906;2022-07-06T06:45:24;17.42;;;15.90;;
52210;SDS011;38179;52.756;6.906;2022-07-06T06:47:50;17.52;;;16.13;;
52210;SDS011;38179;52.756;6.906;2022-07-06T06:50:16;17.75;;;16.05;;
52210;SDS011;38179;52.756;6.906;2022-07-06T06:52:42;18.00;;;15.75;;
52210;SDS011;38179;52.756;6.906;2022-07-06T06:55:08;17.77;;;16.23;;
52210;SDS011;38179;52.756;6.906;2022-07-06T06:57:37;17.55;;;16.08;;
52210;SDS011;38179;52.756;6.906;2022-07-06T07:00:03;17.92;;;16.27;;
52210;SDS011;38179;52.756;6.906;2022-07-06T07:02:30;18.58;;;16.75;;
52210;SDS011;38179;52.756;6.906;2022-07-06T07:04:57;18.58;;;16.92;;
52210;SDS011;38179;52.756;6.906;2022-07-06T07:07:23;17.80;;;16.20;;
52210;SDS011;38179;52.756;6.906;2022-07-06T07:09:49;18.02;;;16.50;;
52210;SDS011;38179;52.756;6.906;2022-07-06T07:12:14;18.50;;;16.60;;
52210;SDS011;38179;52.756;6.906;2022-07-06T07:14:42;17.52;;;16.08;;
52210;SDS011;38179;52.756;6.906;2022-07-06T07:17:09;17.48;;;16.17;;
52210;SDS011;38179;52.756;6.906;2022-07-06T07:19:35;17.83;;;16.40;;
52210;SDS011;38179;52.756;6.906;2022-07-06T07:22:01;18.42;;;16.55;;
52210;SDS011;38179;52.756;6.906;2022-07-06T07:24:28;17.90;;;16.33;;
52210;SDS011;38179;52.756;6.906;2022-07-06T07:26:54;17.65;;;16.10;;
52210;SDS011;38179;52.756;6.906;2022-07-06T07:29:20;17.55;;;16.17;;
52210;SDS011;38179;52.756;6.906;2022-07-06T07:31:45;17.73;;;16.27;;
52210;SDS011;38179;52.756;6.906;2022-07-06T07:34:11;18.23;;;16.52;;
52210;SDS011;38179;52.756;6.906;2022-07-06T07:36:37;17.73;;;16.33;;
52210;SDS011;38179;52.756;6.906;2022-07-06T07:39:03;17.55;;;15.90;;
52210;SDS011;38179;52.756;6.906;2022-07-06T07:41:29;17.02;;;15.70;;
52210;SDS011;38179;52.756;6.906;2022-07-06T07:43:55;17.48;;;16.23;;
52210;SDS011;38179;52.756;6.906;2022-07-06T07:46:21;17.80;;;16.13;;
52210;SDS011;38179;52.756;6.906;2022-07-06T07:48:47;17.38;;;15.82;;
52210;SDS011;38179;52.756;6.906;2022-07-06T07:51:13;17.35;;;16.05;;
52210;SDS011;38179;52.756;6.906;2022-07-06T07:53:39;17.52;;;16.17;;
52210;SDS011;38179;52.756;6.906;2022-07-06T07:56:05;17.67;;;16.13;;
52210;SDS011;38179;52.756;6.906;2022-07-06T07:58:31;17.88;;;16.52;;
52210;SDS011;38179;52.756;6.906;2022-07-06T08:00:57;17.95;;;16.33;;
52210;SDS011;38179;52.756;6.906;2022-07-06T08:03:23;17.95;;;16.48;;
52210;SDS011;38179;52.756;6.906;2022-07-06T08:05:49;18.60;;;17.00;;
52210;SDS011;38179;52.756;6.906;2022-07-06T08:08:15;17.17;;;15.77;;
52210;SDS011;38179;52.756;6.906;2022-07-06T08:10:41;17.92;;;16.50;;
52210;SDS011;38179;52.756;6.906;2022-07-06T08:13:11;17.75;;;16.35;;
52210;SDS011;38179;52.756;6.906;2022-07-06T08:15:37;18.33;;;16.88;;
52210;SDS011;38179;52.756;6.906;2022-07-06T08:18:03;18.50;;;16.70;;
52210;SDS011;38179;52.756;6.906;2022-07-06T08:20:29;17.45;;;16.08;;
52210;SDS011;38179;52.756;6.906;2022-07-06T08:22:55;17.98;;;16.33;;
52210;SDS011;38179;52.756;6.906;2022-07-06T08:25:21;18.00;;;16.70;;
52210;SDS011;38179;52.756;6.906;2022-07-06T08:27:47;17.75;;;16.25;;
52210;SDS011;38179;52.756;6.906;2022-07-06T08:30:13;18.15;;;16.38;;
52210;SDS011;38179;52.756;6.906;2022-07-06T08:32:40;18.05;;;16.63;;
52210;SDS011;38179;52.756;6.906;2022-07-06T08:35:08;17.77;;;16.25;;
52210;SDS011;38179;52.756;6.906;2022-07-06T08:37:36;17.98;;;16.42;;
52210;SDS011;38179;52.756;6.906;2022-07-06T08:40:02;18.88;;;17.15;;
52210;SDS011;38179;52.756;6.906;2022-07-06T08:42:29;18.30;;;16.90;;
52210;SDS011;38179;52.756;6.906;2022-07-06T08:45:01;18.27;;;16.52;;
52210;SDS011;38179;52.756;6.906;2022-07-06T08:47:29;17.73;;;16.33;;
52210;SDS011;38179;52.756;6.906;2022-07-06T08:49:56;18.25;;;16.77;;
52210;SDS011;38179;52.756;6.906;2022-07-06T08:52:23;18.77;;;17.17;;
52210;SDS011;38179;52.756;6.906;2022-07-06T08:54:49;19.17;;;17.27;;
52210;SDS011;38179;52.756;6.906;2022-07-06T08:57:16;18.27;;;16.55;;
52210;SDS011;38179;52.756;6.906;2022-07-06T08:59:42;18.35;;;16.90;;
52210;SDS011;38179;52.756;6.906;2022-07-06T09:02:11;18.33;;;16.92;;
52210;SDS011;38179;52.756;6.906;2022-07-06T09:04:39;18.23;;;16.80;;
52210;SDS011;38179;52.756;6.906;2022-07-06T09:07:08;17.70;;;16.17;;
52210;SDS011;38179;52.756;6.906;2022-07-06T09:09:34;18.25;;;16.80;;
52210;SDS011;38179;52.756;6.906;2022-07-06T09:12:02;18.17;;;16.75;;
52210;SDS011;38179;52.756;6.906;2022-07-06T09:14:29;18.58;;;16.85;;
52210;SDS011;38179;52.756;6.906;2022-07-06T09:17:05;18.08;;;16.58;;
52210;SDS011;38179;52.756;6.906;2022-07-06T09:19:33;17.90;;;16.60;;
52210;SDS011;38179;52.756;6.906;2022-07-06T09:22:02;18.23;;;16.63;;
52210;SDS011;38179;52.756;6.906;2022-07-06T09:24:29;19.30;;;17.52;;
52210;SDS011;38179;52.756;6.906;2022-07-06T09:26:57;18.15;;;16.55;;
52210;SDS011;38179;52.756;6.906;2022-07-06T09:29:30;18.50;;;16.98;;
52210;SDS011;38179;52.756;6.906;2022-07-06T09:32:00;18.13;;;16.52;;
52210;SDS011;38179;52.756;6.906;2022-07-06T09:34:40;18.08;;;16.67;;
52210;SDS011;38179;52.756;6.906;2022-07-06T09:37:10;17.95;;;16.45;;
52210;SDS011;38179;52.756;6.906;2022-07-06T09:39:37;18.20;;;16.80;;
52210;SDS011;38179;52.756;6.906;2022-07-06T09:42:04;18.25;;;16.85;;
52210;SDS011;38179;52.756;6.906;2022-07-06T09:44:41;18.50;;;17.00;;
52210;SDS011;38179;52.756;6.906;2022-07-06T09:47:08;18.25;;;16.92;;
52210;SDS011;38179;52.756;6.906;2022-07-06T09:49:38;19.07;;;17.23;;
52210;SDS011;38179;52.756;6.906;2022-07-06T09:52:06;18.60;;;17.10;;
52210;SDS011;38179;52.756;6.906;2022-07-06T09:54:34;18.42;;;16.92;;
52210;SDS011;38179;52.756;6.906;2022-07-06T09:57:01;17.77;;;16.38;;
52210;SDS011;38179;52.756;6.906;2022-07-06T09:59:28;18.23;;;16.70;;
52210;SDS011;38179;52.756;6.906;2022-07-06T10:01:59;18.15;;;16.60;;
52210;SDS011;38179;52.756;6.906;2022-07-06T10:04:27;18.58;;;17.17;;
52210;SDS011;38179;52.756;6.906;2022-07-06T10:06:57;18.13;;;16.73;;
52210;SDS011;38179;52.756;6.906;2022-07-06T10:09:25;17.63;;;16.33;;
52210;SDS011;38179;52.756;6.906;2022-07-06T10:11:53;17.92;;;16.63;;
52210;SDS011;38179;52.756;6.906;2022-07-06T10:14:22;18.33;;;16.73;;
52210;SDS011;38179;52.756;6.906;2022-07-06T10:16:50;19.02;;;17.33;;
52210;SDS011;38179;52.756;6.906;2022-07-06T10:19:16;18.77;;;17.30;;
52210;SDS011;38179;52.756;6.906;2022-07-06T10:21:45;18.13;;;16.73;;
52210;SDS011;38179;52.756;6.906;2022-07-06T10:24:11;18.77;;;17.27;;
52210;SDS011;38179;52.756;6.906;2022-07-06T10:26:38;18.58;;;16.98;;
52210;SDS011;38179;52.756;6.906;2022-07-06T10:29:05;19.00;;;17.40;;
52210;SDS011;38179;52.756;6.906;2022-07-06T10:31:33;18.23;;;16.92;;
52210;SDS011;38179;52.756;6.906;2022-07-06T10:34:01;18.40;;;16.90;;
52210;SDS011;38179;52.756;6.906;2022-07-06T10:36:30;18.65;;;17.15;;
52210;SDS011;38179;52.756;6.906;2022-07-06T10:38:56;18.30;;;16.70;;
52210;SDS011;38179;52.756;6.906;2022-07-06T10:41:32;18.45;;;17.05;;
52210;SDS011;38179;52.756;6.906;2022-07-06T10:44:17;18.10;;;16.60;;
52210;SDS011;38179;52.756;6.906;2022-07-06T10:46:50;18.05;;;16.75;;
52210;SDS011;38179;52.756;6.906;2022-07-06T10:49:17;18.63;;;17.15;;
52210;SDS011;38179;52.756;6.906;2022-07-06T10:51:44;19.02;;;17.58;;
52210;SDS011;38179;52.756;6.906;2022-07-06T10:54:10;18.55;;;17.15;;
52210;SDS011;38179;52.756;6.906;2022-07-06T10:56:40;18.35;;;17.00;;
52210;SDS011;38179;52.756;6.906;2022-07-06T10:59:22;18.17;;;16.67;;
52210;SDS011;38179;52.756;6.906;2022-07-06T11:04:41;18.50;;;17.10;;
52210;SDS011;38179;52.756;6.906;2022-07-06T11:07:09;18.02;;;16.75;;
52210;SDS011;38179;52.756;6.906;2022-07-06T11:10:01;18.55;;;17.13;;
52210;SDS011;38179;52.756;6.906;2022-07-06T11:12:27;18.50;;;17.10;;
52210;SDS011;38179;52.756;6.906;2022-07-06T11:14:53;18.33;;;16.92;;
52210;SDS011;38179;52.756;6.906;2022-07-06T11:17:20;18.00;;;16.60;;
52210;SDS011;38179;52.756;6.906;2022-07-06T11:19:48;18.17;;;16.73;;
52210;SDS011;38179;52.756;6.906;2022-07-06T11:22:14;18.13;;;16.83;;
52210;SDS011;38179;52.756;6.906;2022-07-06T11:24:42;18.25;;;16.77;;
52210;SDS011;38179;52.756;6.906;2022-07-06T11:27:09;18.90;;;17.38;;
52210;SDS011;38179;52.756;6.906;2022-07-06T11:29:35;18.73;;;17.23;;
52210;SDS011;38179;52.756;6.906;2022-07-06T11:32:04;19.40;;;18.02;;
52210;SDS011;38179;52.756;6.906;2022-07-06T11:34:35;18.63;;;17.23;;
52210;SDS011;38179;52.756;6.906;2022-07-06T11:37:07;19.63;;;17.95;;
52210;SDS011;38179;52.756;6.906;2022-07-06T11:39:38;18.63;;;17.23;;
52210;SDS011;38179;52.756;6.906;2022-07-06T11:42:08;19.42;;;17.95;;
52210;SDS011;38179;52.756;6.906;2022-07-06T11:44:36;19.65;;;17.83;;
52210;SDS011;38179;52.756;6.906;2022-07-06T11:47:04;19.35;;;17.67;;
52210;SDS011;38179;52.756;6.906;2022-07-06T11:49:31;19.05;;;17.45;;
52210;SDS011;38179;52.756;6.906;2022-07-06T11:52:11;19.52;;;17.85;;
52210;SDS011;38179;52.756;6.906;2022-07-06T11:54:39;19.42;;;17.77;;
52210;SDS011;38179;52.756;6.906;2022-07-06T11:57:09;19.02;;;17.73;;
52210;SDS011;38179;52.756;6.906;2022-07-06T11:59:36;19.55;;;17.95;;
52210;SDS011;38179;52.756;6.906;2022-07-06T12:02:04;19.70;;;18.25;;
52210;SDS011;38179;52.756;6.906;2022-07-06T12:04:32;19.90;;;18.48;;
52210;SDS011;38179;52.756;6.906;2022-07-06T12:07:00;19.50;;;17.80;;
52210;SDS011;38179;52.756;6.906;2022-07-06T12:09:31;19.38;;;17.67;;
52210;SDS011;38179;52.756;6.906;2022-07-06T12:11:58;19.63;;;18.13;;
52210;SDS011;38179;52.756;6.906;2022-07-06T12:14:28;19.98;;;18.38;;
52210;SDS011;38179;52.756;6.906;2022-07-06T12:16:54;19.20;;;17.80;;
52210;SDS011;38179;52.756;6.906;2022-07-06T12:19:21;19.80;;;18.20;;
52210;SDS011;38179;52.756;6.906;2022-07-06T12:21:48;20.33;;;18.45;;
52210;SDS011;38179;52.756;6.906;2022-07-06T12:24:20;20.08;;;18.42;;
52210;SDS011;38179;52.756;6.906;2022-07-06T12:26:47;19.55;;;17.85;;
52210;SDS011;38179;52.756;6.906;2022-07-06T12:29:15;20.98;;;18.42;;
52210;SDS011;38179;52.756;6.906;2022-07-06T12:31:49;18.88;;;17.27;;
52210;SDS011;38179;52.756;6.906;2022-07-06T12:36:46;19.33;;;17.73;;
52210;SDS011;38179;52.756;6.906;2022-07-06T12:39:15;19.40;;;17.98;;
52210;SDS011;38179;52.756;6.906;2022-07-06T12:41:50;20.00;;;18.40;;
52210;SDS011;38179;52.756;6.906;2022-07-06T12:44:18;18.92;;;17.52;;
52210;SDS011;38179;52.756;6.906;2022-07-06T12:46:46;19.48;;;18.02;;
52210;SDS011;38179;52.756;6.906;2022-07-06T12:54:45;19.10;;;17.70;;
52210;SDS011;38179;52.756;6.906;2022-07-06T12:57:19;19.65;;;18.17;;
52210;SDS011;38179;52.756;6.906;2022-07-06T12:59:47;19.77;;;18.13;;
52210;SDS011;38179;52.756;6.906;2022-07-06T13:02:22;19.67;;;18.02;;
52210;SDS011;38179;52.756;6.906;2022-07-06T13:05:02;19.98;;;18.17;;
52210;SDS011;38179;52.756;6.906;2022-07-06T13:07:34;19.27;;;17.88;;
52210;SDS011;38179;52.756;6.906;2022-07-06T13:10:03;19.45;;;18.05;;
52210;SDS011;38179;52.756;6.906;2022-07-06T13:12:33;19.42;;;18.02;;
52210;SDS011;38179;52.756;6.906;2022-07-06T13:15:00;19.92;;;18.42;;
52210;SDS011;38179;52.756;6.906;2022-07-06T13:17:27;20.23;;;18.50;;
52210;SDS011;38179;52.756;6.906;2022-07-06T13:19:53;20.27;;;18.52;;
52210;SDS011;38179;52.756;6.906;2022-07-06T13:22:20;19.70;;;18.20;;
52210;SDS011;38179;52.756;6.906;2022-07-06T13:24:46;20.00;;;18.40;;
52210;SDS011;38179;52.756;6.906;2022-07-06T13:27:13;19.58;;;17.95;;
52210;SDS011;38179;52.756;6.906;2022-07-06T13:29:39;19.55;;;18.15;;
52210;SDS011;38179;52.756;6.906;2022-07-06T13:32:06;19.42;;;17.83;;
52210;SDS011;38179;52.756;6.906;2022-07-06T13:34:32;19.25;;;17.75;;
52210;SDS011;38179;52.756;6.906;2022-07-06T13:37:00;20.33;;;18.48;;
52210;SDS011;38179;52.756;6.906;2022-07-06T13:39:28;19.52;;;17.95;;
52210;SDS011;38179;52.756;6.906;2022-07-06T13:41:54;19.02;;;17.52;;
52210;SDS011;38179;52.756;6.906;2022-07-06T13:44:20;20.13;;;18.42;;
52210;SDS011;38179;52.756;6.906;2022-07-06T13:46:47;26.42;;;19.10;;
52210;SDS011;38179;52.756;6.906;2022-07-06T13:49:13;20.30;;;18.50;;
52210;SDS011;38179;52.756;6.906;2022-07-06T13:51:39;20.10;;;18.30;;
52210;SDS011;38179;52.756;6.906;2022-07-06T13:54:05;20.30;;;18.60;;
52210;SDS011;38179;52.756;6.906;2022-07-06T13:56:32;19.98;;;18.42;;
52210;SDS011;38179;52.756;6.906;2022-07-06T13:58:58;19.35;;;17.85;;
52210;SDS011;38179;52.756;6.906;2022-07-06T14:01:24;19.65;;;18.05;;
52210;SDS011;38179;52.756;6.906;2022-07-06T14:03:50;19.75;;;17.95;;
52210;SDS011;38179;52.756;6.906;2022-07-06T14:06:16;20.63;;;18.88;;
52210;SDS011;38179;52.756;6.906;2022-07-06T14:08:42;20.05;;;18.63;;
52210;SDS011;38179;52.756;6.906;2022-07-06T14:11:10;19.92;;;18.40;;
52210;SDS011;38179;52.756;6.906;2022-07-06T14:13:36;19.38;;;17.88;;
52210;SDS011;38179;52.756;6.906;2022-07-06T14:16:03;19.90;;;18.38;;
52210;SDS011;38179;52.756;6.906;2022-07-06T14:18:30;19.30;;;17.83;;
52210;SDS011;38179;52.756;6.906;2022-07-06T14:20:56;19.38;;;17.85;;
52210;SDS011;38179;52.756;6.906;2022-07-06T14:23:22;19.13;;;17.60;;
52210;SDS011;38179;52.756;6.906;2022-07-06T14:25:48;19.17;;;17.75;;
52210;SDS011;38179;52.756;6.906;2022-07-06T14:28:14;99.32;;;21.98;;
52210;SDS011;38179;52.756;6.906;2022-07-06T14:30:42;19.23;;;17.42;;
52210;SDS011;38179;52.756;6.906;2022-07-06T14:33:09;19.50;;;18.05;;
52210;SDS011;38179;52.756;6.906;2022-07-06T14:35:40;19.85;;;18.33;;